sensor_id;sensor_type;location;lat;lon;timestamp;P1;durP1;ratioP1;P2;durP2;ratioP2
4766;SDS011;2397;53.576;9.746;2022-07-23T00:00:28;2.17;;;1.87;;
4766;SDS011;2397;53.576;9.746;2022-07-23T00:02:54;4.53;;;2.13;;
4766;SDS011;2397;53.576;9.746;2022-07-23T00:05:19;3.40;;;1.70;;
4766;SDS011;2397;53.576;9.746;2022-07-23T00:07:44;2.33;;;1.70;;
4766;SDS011;2397;53.576;9.746;2022-07-23T00:10:09;3.03;;;2.17;;
4766;SDS011;2397;53.576;9.746;2022-07-23T00:12:35;1.97;;;1.87;;
4766;SDS011;2397;53.576;9.746;2022-07-23T00:15:01;5.93;;;2.00;;
4766;SDS011;2397;53.576;9.746;2022-07-23T00:17:27;3.47;;;2.20;;
4766;SDS011;2397;53.576;9.746;2022-07-23T00:19:52;3.60;;;2.47;;
4766;SDS011;2397;53.576;9.746;2022-07-23T00:22:18;4.90;;;2.03;;
4766;SDS011;2397;53.576;9.746;2022-07-23T00:24:44;5.53;;;1.97;;
4766;SDS011;2397;53.576;9.746;2022-07-23T00:27:09;6.77;;;2.13;;
4766;SDS011;2397;53.576;9.746;2022-07-23T00:29:34;5.13;;;2.33;;
4766;SDS011;2397;53.576;9.746;2022-07-23T00:31:59;3.53;;;2.00;;
4766;SDS011;2397;53.576;9.746;2022-07-23T00:34:25;3.27;;;1.70;;
4766;SDS011;2397;53.576;9.746;2022-07-23T00:36:50;2.40;;;2.03;;
4766;SDS011;2397;53.576;9.746;2022-07-23T00:39:15;4.30;;;2.00;;
4766;SDS011;2397;53.576;9.746;2022-07-23T00:41:40;9.73;;;2.47;;
4766;SDS011;2397;53.576;9.746;2022-07-23T00:46:45;2.90;;;2.00;;
4766;SDS011;2397;53.576;9.746;2022-07-23T00:49:11;2.23;;;2.03;;
4766;SDS011;2397;53.576;9.746;2022-07-23T00:51:37;4.73;;;1.77;;
4766;SDS011;2397;53.576;9.746;2022-07-23T00:54:02;3.80;;;1.90;;
4766;SDS011;2397;53.576;9.746;2022-07-23T00:56:28;4.30;;;2.67;;
4766;SDS011;2397;53.576;9.746;2022-07-23T00:58:54;9.13;;;2.50;;
4766;SDS011;2397;53.576;9.746;2022-07-23T01:01:21;3.47;;;1.77;;
4766;SDS011;2397;53.576;9.746;2022-07-23T01:03:46;2.73;;;1.63;;
4766;SDS011;2397;53.576;9.746;2022-07-23T01:06:11;1.93;;;1.60;;
4766;SDS011;2397;53.576;9.746;2022-07-23T01:08:36;2.63;;;2.10;;
4766;SDS011;2397;53.576;9.746;2022-07-23T01:11:02;2.90;;;1.83;;
4766;SDS011;2397;53.576;9.746;2022-07-23T01:13:29;2.87;;;2.20;;
4766;SDS011;2397;53.576;9.746;2022-07-23T01:15:54;2.93;;;1.60;;
4766;SDS011;2397;53.576;9.746;2022-07-23T01:18:19;1.90;;;1.80;;
4766;SDS011;2397;53.576;9.746;2022-07-23T01:20:44;2.23;;;1.63;;
4766;SDS011;2397;53.576;9.746;2022-07-23T01:23:10;3.27;;;2.20;;
4766;SDS011;2397;53.576;9.746;2022-07-23T01:25:35;2.80;;;1.70;;
4766;SDS011;2397;53.576;9.746;2022-07-23T01:28:00;1.60;;;1.50;;
4766;SDS011;2397;53.576;9.746;2022-07-23T01:30:25;8.80;;;2.20;;
4766;SDS011;2397;53.576;9.746;2022-07-23T01:32:51;9.30;;;2.00;;
4766;SDS011;2397;53.576;9.746;2022-07-23T01:35:16;3.87;;;2.00;;
4766;SDS011;2397;53.576;9.746;2022-07-23T01:37:42;2.53;;;1.70;;
4766;SDS011;2397;53.576;9.746;2022-07-23T01:40:07;2.00;;;1.80;;
4766;SDS011;2397;53.576;9.746;2022-07-23T01:42:32;4.00;;;1.97;;
4766;SDS011;2397;53.576;9.746;2022-07-23T01:44:58;2.40;;;2.20;;
4766;SDS011;2397;53.576;9.746;2022-07-23T01:47:23;3.67;;;2.20;;
4766;SDS011;2397;53.576;9.746;2022-07-23T01:49:48;3.87;;;1.97;;
4766;SDS011;2397;53.576;9.746;2022-07-23T01:52:14;3.90;;;1.80;;
4766;SDS011;2397;53.576;9.746;2022-07-23T01:54:39;2.67;;;1.73;;
4766;SDS011;2397;53.576;9.746;2022-07-23T01:57:05;11.13;;;3.40;;
4766;SDS011;2397;53.576;9.746;2022-07-23T01:59:31;4.57;;;1.83;;
4766;SDS011;2397;53.576;9.746;2022-07-23T02:01:57;3.17;;;1.70;;
4766;SDS011;2397;53.576;9.746;2022-07-23T02:04:23;5.00;;;2.20;;
4766;SDS011;2397;53.576;9.746;2022-07-23T02:06:49;3.20;;;2.20;;
4766;SDS011;2397;53.576;9.746;2022-07-23T02:09:15;5.40;;;2.07;;
4766;SDS011;2397;53.576;9.746;2022-07-23T02:11:41;3.53;;;1.90;;
4766;SDS011;2397;53.576;9.746;2022-07-23T02:14:06;3.53;;;1.90;;
4766;SDS011;2397;53.576;9.746;2022-07-23T02:16:31;2.33;;;1.80;;
4766;SDS011;2397;53.576;9.746;2022-07-23T02:18:57;6.83;;;2.50;;
4766;SDS011;2397;53.576;9.746;2022-07-23T02:21:22;3.17;;;2.40;;
4766;SDS011;2397;53.576;9.746;2022-07-23T02:23:48;5.73;;;2.50;;
4766;SDS011;2397;53.576;9.746;2022-07-23T02:26:13;1.70;;;1.60;;
4766;SDS011;2397;53.576;9.746;2022-07-23T02:28:38;4.57;;;2.20;;
4766;SDS011;2397;53.576;9.746;2022-07-23T02:31:04;3.77;;;2.00;;
4766;SDS011;2397;53.576;9.746;2022-07-23T02:33:30;2.20;;;2.00;;
4766;SDS011;2397;53.576;9.746;2022-07-23T02:35:55;3.20;;;2.30;;
4766;SDS011;2397;53.576;9.746;2022-07-23T02:38:21;2.73;;;2.10;;
4766;SDS011;2397;53.576;9.746;2022-07-23T02:40:46;4.20;;;2.13;;
4766;SDS011;2397;53.576;9.746;2022-07-23T02:43:11;5.53;;;2.20;;
4766;SDS011;2397;53.576;9.746;2022-07-23T02:45:36;4.00;;;1.93;;
4766;SDS011;2397;53.576;9.746;2022-07-23T02:48:02;4.43;;;2.10;;
4766;SDS011;2397;53.576;9.746;2022-07-23T02:50:27;4.60;;;2.07;;
4766;SDS011;2397;53.576;9.746;2022-07-23T02:52:53;4.53;;;2.13;;
4766;SDS011;2397;53.576;9.746;2022-07-23T02:55:18;2.20;;;2.00;;
4766;SDS011;2397;53.576;9.746;2022-07-23T02:57:43;4.97;;;2.10;;
4766;SDS011;2397;53.576;9.746;2022-07-23T03:00:09;3.30;;;2.60;;
4766;SDS011;2397;53.576;9.746;2022-07-23T03:02:34;4.03;;;2.73;;
4766;SDS011;2397;53.576;9.746;2022-07-23T03:05:00;3.80;;;2.33;;
4766;SDS011;2397;53.576;9.746;2022-07-23T03:07:25;2.40;;;2.20;;
4766;SDS011;2397;53.576;9.746;2022-07-23T03:09:50;8.70;;;2.40;;
4766;SDS011;2397;53.576;9.746;2022-07-23T03:12:15;3.70;;;2.33;;
4766;SDS011;2397;53.576;9.746;2022-07-23T03:14:41;2.70;;;1.97;;
4766;SDS011;2397;53.576;9.746;2022-07-23T03:17:06;4.70;;;2.70;;
4766;SDS011;2397;53.576;9.746;2022-07-23T03:19:32;4.70;;;2.73;;
4766;SDS011;2397;53.576;9.746;2022-07-23T03:21:57;4.70;;;2.80;;
4766;SDS011;2397;53.576;9.746;2022-07-23T03:24:22;4.17;;;3.00;;
4766;SDS011;2397;53.576;9.746;2022-07-23T03:27:07;5.17;;;2.70;;
4766;SDS011;2397;53.576;9.746;2022-07-23T03:29:33;2.80;;;2.57;;
4766;SDS011;2397;53.576;9.746;2022-07-23T03:31:58;3.13;;;2.90;;
4766;SDS011;2397;53.576;9.746;2022-07-23T03:34:23;4.10;;;2.73;;
4766;SDS011;2397;53.576;9.746;2022-07-23T03:36:48;3.90;;;2.83;;
4766;SDS011;2397;53.576;9.746;2022-07-23T03:39:14;5.67;;;3.17;;
4766;SDS011;2397;53.576;9.746;2022-07-23T03:41:39;4.83;;;3.07;;
4766;SDS011;2397;53.576;9.746;2022-07-23T03:44:04;4.93;;;3.27;;
4766;SDS011;2397;53.576;9.746;2022-07-23T03:46:29;3.33;;;2.60;;
4766;SDS011;2397;53.576;9.746;2022-07-23T03:48:55;3.93;;;2.77;;
4766;SDS011;2397;53.576;9.746;2022-07-23T03:51:20;4.73;;;2.70;;
4766;SDS011;2397;53.576;9.746;2022-07-23T03:53:45;4.90;;;2.80;;
4766;SDS011;2397;53.576;9.746;2022-07-23T03:56:10;3.80;;;2.60;;
4766;SDS011;2397;53.576;9.746;2022-07-23T03:58:36;5.10;;;3.27;;
4766;SDS011;2397;53.576;9.746;2022-07-23T04:01:01;10.03;;;2.87;;
4766;SDS011;2397;53.576;9.746;2022-07-23T04:03:26;7.27;;;3.40;;
4766;SDS011;2397;53.576;9.746;2022-07-23T04:05:52;3.40;;;3.10;;
4766;SDS011;2397;53.576;9.746;2022-07-23T04:08:17;4.50;;;3.33;;
4766;SDS011;2397;53.576;9.746;2022-07-23T04:10:42;4.07;;;3.67;;
4766;SDS011;2397;53.576;9.746;2022-07-23T04:13:08;6.83;;;3.80;;
4766;SDS011;2397;53.576;9.746;2022-07-23T04:15:33;9.63;;;4.27;;
4766;SDS011;2397;53.576;9.746;2022-07-23T04:17:58;5.20;;;3.70;;
4766;SDS011;2397;53.576;9.746;2022-07-23T04:20:23;4.23;;;3.57;;
4766;SDS011;2397;53.576;9.746;2022-07-23T04:22:49;3.57;;;3.27;;
4766;SDS011;2397;53.576;9.746;2022-07-23T04:25:14;4.00;;;3.43;;
4766;SDS011;2397;53.576;9.746;2022-07-23T04:27:41;6.03;;;3.10;;
4766;SDS011;2397;53.576;9.746;2022-07-23T04:30:07;3.47;;;3.03;;
4766;SDS011;2397;53.576;9.746;2022-07-23T04:32:33;2.70;;;2.50;;
4766;SDS011;2397;53.576;9.746;2022-07-23T04:34:58;6.47;;;2.60;;
4766;SDS011;2397;53.576;9.746;2022-07-23T04:37:23;2.17;;;1.97;;
4766;SDS011;2397;53.576;9.746;2022-07-23T04:39:49;4.07;;;2.20;;
4766;SDS011;2397;53.576;9.746;2022-07-23T04:42:14;2.20;;;1.63;;
4766;SDS011;2397;53.576;9.746;2022-07-23T04:44:39;2.20;;;1.63;;
4766;SDS011;2397;53.576;9.746;2022-07-23T04:47:04;2.63;;;1.73;;
4766;SDS011;2397;53.576;9.746;2022-07-23T04:49:30;2.80;;;1.97;;
4766;SDS011;2397;53.576;9.746;2022-07-23T04:51:55;2.43;;;1.83;;
4766;SDS011;2397;53.576;9.746;2022-07-23T04:54:20;2.40;;;1.77;;
4766;SDS011;2397;53.576;9.746;2022-07-23T04:56:45;1.93;;;1.80;;
4766;SDS011;2397;53.576;9.746;2022-07-23T04:59:11;2.57;;;1.73;;
4766;SDS011;2397;53.576;9.746;2022-07-23T05:01:36;2.37;;;1.93;;
4766;SDS011;2397;53.576;9.746;2022-07-23T05:04:01;1.50;;;1.40;;
4766;SDS011;2397;53.576;9.746;2022-07-23T05:06:26;3.83;;;1.60;;
4766;SDS011;2397;53.576;9.746;2022-07-23T05:08:52;2.77;;;2.00;;
4766;SDS011;2397;53.576;9.746;2022-07-23T05:11:17;4.80;;;1.77;;
4766;SDS011;2397;53.576;9.746;2022-07-23T05:13:42;4.50;;;1.90;;
4766;SDS011;2397;53.576;9.746;2022-07-23T05:16:07;1.93;;;1.83;;
4766;SDS011;2397;53.576;9.746;2022-07-23T05:18:33;5.70;;;1.73;;
4766;SDS011;2397;53.576;9.746;2022-07-23T05:20:58;2.03;;;1.83;;
4766;SDS011;2397;53.576;9.746;2022-07-23T05:23:23;1.97;;;1.80;;
4766;SDS011;2397;53.576;9.746;2022-07-23T05:25:48;2.10;;;1.60;;
4766;SDS011;2397;53.576;9.746;2022-07-23T05:28:14;1.60;;;1.50;;
4766;SDS011;2397;53.576;9.746;2022-07-23T05:30:40;6.00;;;2.00;;
4766;SDS011;2397;53.576;9.746;2022-07-23T05:33:05;2.20;;;1.80;;
4766;SDS011;2397;53.576;9.746;2022-07-23T05:35:32;3.87;;;2.00;;
4766;SDS011;2397;53.576;9.746;2022-07-23T05:37:57;2.23;;;2.00;;
4766;SDS011;2397;53.576;9.746;2022-07-23T05:40:23;3.73;;;1.93;;
4766;SDS011;2397;53.576;9.746;2022-07-23T05:42:48;2.50;;;2.30;;
4766;SDS011;2397;53.576;9.746;2022-07-23T05:45:13;3.53;;;2.80;;
4766;SDS011;2397;53.576;9.746;2022-07-23T05:47:39;2.70;;;2.50;;
4766;SDS011;2397;53.576;9.746;2022-07-23T05:50:12;3.90;;;2.80;;
4766;SDS011;2397;53.576;9.746;2022-07-23T05:52:38;3.13;;;2.57;;
4766;SDS011;2397;53.576;9.746;2022-07-23T05:55:04;6.00;;;3.03;;
4766;SDS011;2397;53.576;9.746;2022-07-23T05:57:29;7.10;;;2.83;;
4766;SDS011;2397;53.576;9.746;2022-07-23T05:59:55;6.23;;;3.00;;
4766;SDS011;2397;53.576;9.746;2022-07-23T06:02:20;2.90;;;2.70;;
4766;SDS011;2397;53.576;9.746;2022-07-23T06:04:45;2.67;;;2.47;;
4766;SDS011;2397;53.576;9.746;2022-07-23T06:07:11;3.53;;;2.93;;
4766;SDS011;2397;53.576;9.746;2022-07-23T06:09:36;3.90;;;2.70;;
4766;SDS011;2397;53.576;9.746;2022-07-23T06:12:01;2.33;;;2.13;;
4766;SDS011;2397;53.576;9.746;2022-07-23T06:14:27;2.53;;;2.40;;
4766;SDS011;2397;53.576;9.746;2022-07-23T06:16:52;3.23;;;2.93;;
4766;SDS011;2397;53.576;9.746;2022-07-23T06:19:17;9.50;;;3.13;;
4766;SDS011;2397;53.576;9.746;2022-07-23T06:21:43;2.47;;;2.27;;
4766;SDS011;2397;53.576;9.746;2022-07-23T06:24:08;3.80;;;3.20;;
4766;SDS011;2397;53.576;9.746;2022-07-23T06:26:33;2.80;;;2.60;;
4766;SDS011;2397;53.576;9.746;2022-07-23T06:28:58;2.73;;;2.53;;
4766;SDS011;2397;53.576;9.746;2022-07-23T06:31:24;5.13;;;2.80;;
4766;SDS011;2397;53.576;9.746;2022-07-23T06:33:49;3.03;;;2.73;;
4766;SDS011;2397;53.576;9.746;2022-07-23T06:36:15;6.93;;;2.47;;
4766;SDS011;2397;53.576;9.746;2022-07-23T06:38:40;4.40;;;2.10;;
4766;SDS011;2397;53.576;9.746;2022-07-23T06:41:05;6.70;;;2.53;;
4766;SDS011;2397;53.576;9.746;2022-07-23T06:43:30;3.00;;;2.10;;
4766;SDS011;2397;53.576;9.746;2022-07-23T06:45:56;4.90;;;1.90;;
4766;SDS011;2397;53.576;9.746;2022-07-23T06:48:21;3.53;;;2.13;;
4766;SDS011;2397;53.576;9.746;2022-07-23T06:50:47;2.97;;;2.20;;
4766;SDS011;2397;53.576;9.746;2022-07-23T06:53:12;4.50;;;3.10;;
4766;SDS011;2397;53.576;9.746;2022-07-23T06:55:38;2.10;;;2.00;;
4766;SDS011;2397;53.576;9.746;2022-07-23T06:58:03;2.50;;;2.30;;
4766;SDS011;2397;53.576;9.746;2022-07-23T07:00:29;3.30;;;2.17;;
4766;SDS011;2397;53.576;9.746;2022-07-23T07:02:56;1.90;;;1.70;;
4766;SDS011;2397;53.576;9.746;2022-07-23T07:05:21;2.13;;;1.47;;
4766;SDS011;2397;53.576;9.746;2022-07-23T07:07:47;3.87;;;1.57;;
4766;SDS011;2397;53.576;9.746;2022-07-23T07:10:13;1.50;;;1.40;;
4766;SDS011;2397;53.576;9.746;2022-07-23T07:12:38;1.60;;;1.50;;
4766;SDS011;2397;53.576;9.746;2022-07-23T07:15:04;1.90;;;1.47;;
4766;SDS011;2397;53.576;9.746;2022-07-23T07:17:29;1.53;;;1.43;;
4766;SDS011;2397;53.576;9.746;2022-07-23T07:19:55;1.50;;;1.40;;
4766;SDS011;2397;53.576;9.746;2022-07-23T07:22:20;1.90;;;1.57;;
4766;SDS011;2397;53.576;9.746;2022-07-23T07:24:45;1.20;;;1.10;;
4766;SDS011;2397;53.576;9.746;2022-07-23T07:27:10;1.10;;;1.00;;
4766;SDS011;2397;53.576;9.746;2022-07-23T07:29:36;1.47;;;1.30;;
4766;SDS011;2397;53.576;9.746;2022-07-23T07:32:01;1.40;;;1.20;;
4766;SDS011;2397;53.576;9.746;2022-07-23T07:34:26;4.40;;;1.30;;
4766;SDS011;2397;53.576;9.746;2022-07-23T07:36:52;1.50;;;1.40;;
4766;SDS011;2397;53.576;9.746;2022-07-23T07:39:17;1.70;;;1.60;;
4766;SDS011;2397;53.576;9.746;2022-07-23T07:41:42;2.23;;;1.43;;
4766;SDS011;2397;53.576;9.746;2022-07-23T07:44:07;2.30;;;1.20;;
4766;SDS011;2397;53.576;9.746;2022-07-23T07:46:33;2.80;;;1.37;;
4766;SDS011;2397;53.576;9.746;2022-07-23T07:48:58;2.40;;;1.50;;
4766;SDS011;2397;53.576;9.746;2022-07-23T07:51:23;1.67;;;1.57;;
4766;SDS011;2397;53.576;9.746;2022-07-23T07:53:49;2.00;;;1.70;;
4766;SDS011;2397;53.576;9.746;2022-07-23T07:56:14;1.83;;;1.73;;
4766;SDS011;2397;53.576;9.746;2022-07-23T07:58:39;2.23;;;2.03;;
4766;SDS011;2397;53.576;9.746;2022-07-23T08:01:04;3.20;;;3.00;;
4766;SDS011;2397;53.576;9.746;2022-07-23T08:03:30;5.43;;;2.03;;
4766;SDS011;2397;53.576;9.746;2022-07-23T08:05:55;2.73;;;1.60;;
4766;SDS011;2397;53.576;9.746;2022-07-23T08:08:20;2.07;;;1.30;;
4766;SDS011;2397;53.576;9.746;2022-07-23T08:10:46;1.50;;;1.40;;
4766;SDS011;2397;53.576;9.746;2022-07-23T08:13:14;1.30;;;1.20;;
4766;SDS011;2397;53.576;9.746;2022-07-23T08:15:40;1.27;;;1.17;;
4766;SDS011;2397;53.576;9.746;2022-07-23T08:18:06;2.47;;;1.20;;
4766;SDS011;2397;53.576;9.746;2022-07-23T08:20:31;1.30;;;1.20;;
4766;SDS011;2397;53.576;9.746;2022-07-23T08:22:57;4.13;;;1.47;;
4766;SDS011;2397;53.576;9.746;2022-07-23T08:25:28;1.20;;;1.10;;
4766;SDS011;2397;53.576;9.746;2022-07-23T08:27:56;2.80;;;2.60;;
4766;SDS011;2397;53.576;9.746;2022-07-23T08:30:22;1.33;;;1.23;;
4766;SDS011;2397;53.576;9.746;2022-07-23T08:33:06;3.30;;;1.30;;
4766;SDS011;2397;53.576;9.746;2022-07-23T08:35:38;1.30;;;1.20;;
4766;SDS011;2397;53.576;9.746;2022-07-23T08:38:10;1.20;;;1.10;;
4766;SDS011;2397;53.576;9.746;2022-07-23T08:40:36;1.40;;;1.30;;
4766;SDS011;2397;53.576;9.746;2022-07-23T08:43:04;5.97;;;1.50;;
4766;SDS011;2397;53.576;9.746;2022-07-23T08:45:31;1.20;;;1.10;;
4766;SDS011;2397;53.576;9.746;2022-07-23T08:48:01;2.90;;;1.10;;
4766;SDS011;2397;53.576;9.746;2022-07-23T08:50:28;4.47;;;1.60;;
4766;SDS011;2397;53.576;9.746;2022-07-23T08:52:53;3.17;;;1.40;;
4766;SDS011;2397;53.576;9.746;2022-07-23T08:55:20;3.30;;;1.30;;
4766;SDS011;2397;53.576;9.746;2022-07-23T08:57:47;2.03;;;1.70;;
4766;SDS011;2397;53.576;9.746;2022-07-23T09:00:14;1.30;;;1.20;;
4766;SDS011;2397;53.576;9.746;2022-07-23T09:02:41;1.63;;;1.37;;
4766;SDS011;2397;53.576;9.746;2022-07-23T09:05:07;1.57;;;1.13;;
4766;SDS011;2397;53.576;9.746;2022-07-23T09:07:34;1.73;;;1.30;;
4766;SDS011;2397;53.576;9.746;2022-07-23T09:10:04;2.20;;;1.20;;
4766;SDS011;2397;53.576;9.746;2022-07-23T09:12:31;1.57;;;1.47;;
4766;SDS011;2397;53.576;9.746;2022-07-23T09:14:56;1.57;;;1.30;;
4766;SDS011;2397;53.576;9.746;2022-07-23T09:17:28;1.50;;;1.40;;
4766;SDS011;2397;53.576;9.746;2022-07-23T09:20:09;1.40;;;1.30;;
4766;SDS011;2397;53.576;9.746;2022-07-23T09:22:36;1.53;;;1.20;;
4766;SDS011;2397;53.576;9.746;2022-07-23T09:25:02;1.20;;;1.10;;
4766;SDS011;2397;53.576;9.746;2022-07-23T09:30:18;2.13;;;1.33;;
4766;SDS011;2397;53.576;9.746;2022-07-23T09:32:44;1.30;;;1.20;;
4766;SDS011;2397;53.576;9.746;2022-07-23T09:35:45;1.43;;;1.33;;
4766;SDS011;2397;53.576;9.746;2022-07-23T09:38:13;1.50;;;1.40;;
4766;SDS011;2397;53.576;9.746;2022-07-23T09:40:38;1.73;;;1.10;;
4766;SDS011;2397;53.576;9.746;2022-07-23T09:43:04;1.30;;;1.20;;
4766;SDS011;2397;53.576;9.746;2022-07-23T09:45:29;2.03;;;1.60;;
4766;SDS011;2397;53.576;9.746;2022-07-23T09:48:13;2.73;;;1.20;;
4766;SDS011;2397;53.576;9.746;2022-07-23T09:50:43;3.93;;;1.13;;
4766;SDS011;2397;53.576;9.746;2022-07-23T09:53:09;1.37;;;1.00;;
4766;SDS011;2397;53.576;9.746;2022-07-23T09:55:48;1.30;;;1.20;;
4766;SDS011;2397;53.576;9.746;2022-07-23T09:58:13;1.47;;;0.97;;
4766;SDS011;2397;53.576;9.746;2022-07-23T10:00:39;2.53;;;1.23;;
4766;SDS011;2397;53.576;9.746;2022-07-23T10:03:05;2.27;;;1.30;;
4766;SDS011;2397;53.576;9.746;2022-07-23T10:05:31;1.57;;;1.40;;
4766;SDS011;2397;53.576;9.746;2022-07-23T10:07:59;1.17;;;1.00;;
4766;SDS011;2397;53.576;9.746;2022-07-23T10:10:27;1.40;;;1.20;;
4766;SDS011;2397;53.576;9.746;2022-07-23T10:12:54;1.87;;;1.30;;
4766;SDS011;2397;53.576;9.746;2022-07-23T10:15:26;1.10;;;1.00;;
4766;SDS011;2397;53.576;9.746;2022-07-23T10:17:52;1.37;;;1.20;;
4766;SDS011;2397;53.576;9.746;2022-07-23T10:20:17;2.30;;;1.10;;
4766;SDS011;2397;53.576;9.746;2022-07-23T10:25:57;1.27;;;1.13;;
4766;SDS011;2397;53.576;9.746;2022-07-23T10:34:24;1.50;;;1.40;;
4766;SDS011;2397;53.576;9.746;2022-07-23T10:39:32;1.47;;;1.10;;
4766;SDS011;2397;53.576;9.746;2022-07-23T10:44:58;1.13;;;1.03;;
4766;SDS011;2397;53.576;9.746;2022-07-23T10:47:29;1.10;;;1.00;;
4766;SDS011;2397;53.576;9.746;2022-07-23T10:55:41;1.67;;;1.30;;
4766;SDS011;2397;53.576;9.746;2022-07-23T10:58:08;1.10;;;1.00;;
4766;SDS011;2397;53.576;9.746;2022-07-23T11:00:35;2.03;;;1.03;;
4766;SDS011;2397;53.576;9.746;2022-07-23T11:03:02;1.07;;;0.93;;
4766;SDS011;2397;53.576;9.746;2022-07-23T11:05:40;1.17;;;1.00;;
4766;SDS011;2397;53.576;9.746;2022-07-23T11:10:36;1.47;;;1.00;;
4766;SDS011;2397;53.576;9.746;2022-07-23T11:31:56;2.20;;;1.43;;
4766;SDS011;2397;53.576;9.746;2022-07-23T11:34:32;1.87;;;1.33;;
4766;SDS011;2397;53.576;9.746;2022-07-23T11:36:59;3.00;;;1.47;;
4766;SDS011;2397;53.576;9.746;2022-07-23T11:39:27;4.87;;;1.93;;
4766;SDS011;2397;53.576;9.746;2022-07-23T11:41:54;2.87;;;1.80;;
4766;SDS011;2397;53.576;9.746;2022-07-23T11:44:27;2.00;;;1.90;;
4766;SDS011;2397;53.576;9.746;2022-07-23T11:46:54;2.57;;;1.60;;
4766;SDS011;2397;53.576;9.746;2022-07-23T11:49:24;2.63;;;1.80;;
4766;SDS011;2397;53.576;9.746;2022-07-23T11:54:32;5.13;;;2.03;;
4766;SDS011;2397;53.576;9.746;2022-07-23T11:56:58;4.27;;;1.80;;
4766;SDS011;2397;53.576;9.746;2022-07-23T11:59:26;3.10;;;2.07;;
4766;SDS011;2397;53.576;9.746;2022-07-23T12:02:00;2.70;;;1.57;;
4766;SDS011;2397;53.576;9.746;2022-07-23T12:04:43;2.37;;;2.17;;
4766;SDS011;2397;53.576;9.746;2022-07-23T12:07:27;3.70;;;2.03;;
4766;SDS011;2397;53.576;9.746;2022-07-23T12:10:22;2.53;;;2.33;;
4766;SDS011;2397;53.576;9.746;2022-07-23T12:12:56;4.00;;;2.73;;
4766;SDS011;2397;53.576;9.746;2022-07-23T12:15:44;2.23;;;1.80;;
4766;SDS011;2397;53.576;9.746;2022-07-23T12:18:11;4.80;;;1.87;;
4766;SDS011;2397;53.576;9.746;2022-07-23T12:20:42;3.80;;;2.13;;
4766;SDS011;2397;53.576;9.746;2022-07-23T12:23:13;1.63;;;1.53;;
4766;SDS011;2397;53.576;9.746;2022-07-23T12:25:41;1.93;;;1.30;;
4766;SDS011;2397;53.576;9.746;2022-07-23T12:28:09;1.83;;;1.63;;
4766;SDS011;2397;53.576;9.746;2022-07-23T12:33:31;1.70;;;1.60;;
4766;SDS011;2397;53.576;9.746;2022-07-23T12:35:59;1.73;;;1.30;;
4766;SDS011;2397;53.576;9.746;2022-07-23T12:38:26;1.23;;;1.13;;
4766;SDS011;2397;53.576;9.746;2022-07-23T12:43:23;2.03;;;1.67;;
4766;SDS011;2397;53.576;9.746;2022-07-23T12:45:52;1.40;;;1.27;;
4766;SDS011;2397;53.576;9.746;2022-07-23T12:48:31;2.50;;;1.40;;
4766;SDS011;2397;53.576;9.746;2022-07-23T12:51:08;2.93;;;1.30;;
4766;SDS011;2397;53.576;9.746;2022-07-23T12:56:10;3.20;;;1.53;;
4766;SDS011;2397;53.576;9.746;2022-07-23T12:58:41;2.30;;;1.20;;
4766;SDS011;2397;53.576;9.746;2022-07-23T13:06:24;1.67;;;1.20;;
4766;SDS011;2397;53.576;9.746;2022-07-23T13:08:50;1.37;;;1.20;;
4766;SDS011;2397;53.576;9.746;2022-07-23T13:11:15;3.00;;;1.30;;
4766;SDS011;2397;53.576;9.746;2022-07-23T13:13:41;1.43;;;1.33;;
4766;SDS011;2397;53.576;9.746;2022-07-23T13:16:06;1.47;;;1.20;;
4766;SDS011;2397;53.576;9.746;2022-07-23T13:18:31;1.47;;;1.30;;
4766;SDS011;2397;53.576;9.746;2022-07-23T13:20:57;1.63;;;1.30;;
4766;SDS011;2397;53.576;9.746;2022-07-23T13:23:22;1.67;;;1.30;;
4766;SDS011;2397;53.576;9.746;2022-07-23T13:25:48;2.13;;;1.60;;
4766;SDS011;2397;53.576;9.746;2022-07-23T13:28:14;1.90;;;1.33;;
4766;SDS011;2397;53.576;9.746;2022-07-23T13:30:41;2.40;;;1.50;;
4766;SDS011;2397;53.576;9.746;2022-07-23T13:33:07;1.60;;;1.37;;
4766;SDS011;2397;53.576;9.746;2022-07-23T13:35:33;1.50;;;1.40;;
4766;SDS011;2397;53.576;9.746;2022-07-23T13:38:00;1.70;;;1.43;;
4766;SDS011;2397;53.576;9.746;2022-07-23T13:40:26;2.00;;;1.80;;
4766;SDS011;2397;53.576;9.746;2022-07-23T13:42:51;3.10;;;1.57;;
4766;SDS011;2397;53.576;9.746;2022-07-23T13:45:17;2.13;;;1.53;;
4766;SDS011;2397;53.576;9.746;2022-07-23T13:47:42;2.13;;;1.93;;
4766;SDS011;2397;53.576;9.746;2022-07-23T13:50:07;1.83;;;1.60;;
4766;SDS011;2397;53.576;9.746;2022-07-23T13:52:33;1.53;;;1.37;;
4766;SDS011;2397;53.576;9.746;2022-07-23T13:54:59;3.20;;;1.70;;
4766;SDS011;2397;53.576;9.746;2022-07-23T13:57:28;1.97;;;1.40;;
4766;SDS011;2397;53.576;9.746;2022-07-23T13:59:54;3.10;;;1.50;;
4766;SDS011;2397;53.576;9.746;2022-07-23T14:02:19;1.37;;;1.27;;
4766;SDS011;2397;53.576;9.746;2022-07-23T14:04:44;2.90;;;1.30;;
4766;SDS011;2397;53.576;9.746;2022-07-23T14:07:10;3.20;;;1.60;;
4766;SDS011;2397;53.576;9.746;2022-07-23T14:09:35;1.97;;;1.30;;
4766;SDS011;2397;53.576;9.746;2022-07-23T14:12:01;1.50;;;1.40;;
4766;SDS011;2397;53.576;9.746;2022-07-23T14:14:27;1.83;;;1.47;;
4766;SDS011;2397;53.576;9.746;2022-07-23T14:16:52;1.50;;;1.30;;
4766;SDS011;2397;53.576;9.746;2022-07-23T14:19:17;3.43;;;1.57;;
4766;SDS011;2397;53.576;9.746;2022-07-23T14:21:43;1.97;;;1.60;;
4766;SDS011;2397;53.576;9.746;2022-07-23T14:24:08;1.50;;;1.40;;
4766;SDS011;2397;53.576;9.746;2022-07-23T14:26:33;3.27;;;1.50;;
4766;SDS011;2397;53.576;9.746;2022-07-23T14:28:59;2.70;;;1.20;;
4766;SDS011;2397;53.576;9.746;2022-07-23T14:31:24;2.53;;;1.20;;
4766;SDS011;2397;53.576;9.746;2022-07-23T14:33:49;1.50;;;1.40;;
4766;SDS011;2397;53.576;9.746;2022-07-23T14:36:15;2.23;;;1.40;;
4766;SDS011;2397;53.576;9.746;2022-07-23T14:38:41;7.13;;;1.50;;
4766;SDS011;2397;53.576;9.746;2022-07-23T14:41:06;3.83;;;3.53;;
4766;SDS011;2397;53.576;9.746;2022-07-23T14:43:33;4.13;;;1.70;;
4766;SDS011;2397;53.576;9.746;2022-07-23T14:45:59;2.20;;;1.70;;
4766;SDS011;2397;53.576;9.746;2022-07-23T14:48:24;3.33;;;1.90;;
4766;SDS011;2397;53.576;9.746;2022-07-23T14:50:49;3.97;;;1.43;;
4766;SDS011;2397;53.576;9.746;2022-07-23T14:53:15;1.20;;;1.10;;
4766;SDS011;2397;53.576;9.746;2022-07-23T14:55:41;3.13;;;1.60;;
4766;SDS011;2397;53.576;9.746;2022-07-23T14:58:06;3.63;;;1.70;;
4766;SDS011;2397;53.576;9.746;2022-07-23T15:00:31;1.47;;;1.37;;
4766;SDS011;2397;53.576;9.746;2022-07-23T15:02:56;1.50;;;1.17;;
4766;SDS011;2397;53.576;9.746;2022-07-23T15:05:22;3.10;;;1.50;;
4766;SDS011;2397;53.576;9.746;2022-07-23T15:07:47;1.97;;;1.50;;
4766;SDS011;2397;53.576;9.746;2022-07-23T15:10:13;2.50;;;1.70;;
4766;SDS011;2397;53.576;9.746;2022-07-23T15:12:38;1.60;;;1.50;;
4766;SDS011;2397;53.576;9.746;2022-07-23T15:15:04;3.83;;;1.83;;
4766;SDS011;2397;53.576;9.746;2022-07-23T15:17:29;3.77;;;1.77;;
4766;SDS011;2397;53.576;9.746;2022-07-23T15:19:55;3.20;;;1.57;;
4766;SDS011;2397;53.576;9.746;2022-07-23T15:22:20;2.30;;;1.47;;
4766;SDS011;2397;53.576;9.746;2022-07-23T15:24:45;3.37;;;1.67;;
4766;SDS011;2397;53.576;9.746;2022-07-23T15:27:11;3.87;;;1.10;;
4766;SDS011;2397;53.576;9.746;2022-07-23T15:29:36;1.97;;;1.43;;
4766;SDS011;2397;53.576;9.746;2022-07-23T15:32:02;1.63;;;1.40;;
4766;SDS011;2397;53.576;9.746;2022-07-23T15:34:27;1.73;;;1.50;;
4766;SDS011;2397;53.576;9.746;2022-07-23T15:36:53;4.37;;;2.00;;
4766;SDS011;2397;53.576;9.746;2022-07-23T15:39:18;1.70;;;1.40;;
4766;SDS011;2397;53.576;9.746;2022-07-23T15:41:44;2.17;;;1.50;;
4766;SDS011;2397;53.576;9.746;2022-07-23T15:44:09;3.33;;;1.77;;
4766;SDS011;2397;53.576;9.746;2022-07-23T15:46:34;1.40;;;1.30;;
4766;SDS011;2397;53.576;9.746;2022-07-23T15:49:00;3.57;;;1.60;;
4766;SDS011;2397;53.576;9.746;2022-07-23T15:51:25;2.23;;;1.23;;
4766;SDS011;2397;53.576;9.746;2022-07-23T15:53:50;1.87;;;1.47;;
4766;SDS011;2397;53.576;9.746;2022-07-23T15:56:16;3.07;;;1.23;;
4766;SDS011;2397;53.576;9.746;2022-07-23T15:58:41;3.80;;;1.37;;
4766;SDS011;2397;53.576;9.746;2022-07-23T16:01:06;1.50;;;1.40;;
4766;SDS011;2397;53.576;9.746;2022-07-23T16:03:33;1.50;;;1.40;;
4766;SDS011;2397;53.576;9.746;2022-07-23T16:06:00;1.60;;;1.27;;
4766;SDS011;2397;53.576;9.746;2022-07-23T16:08:26;2.73;;;1.50;;
4766;SDS011;2397;53.576;9.746;2022-07-23T16:10:51;2.00;;;1.60;;
4766;SDS011;2397;53.576;9.746;2022-07-23T16:13:17;3.27;;;1.37;;